createdAt,value
2022-10-03T00:01:59.499Z,96.74
2022-10-03T00:04:53.189Z,92.70
2022-10-03T00:09:00.395Z,93.23
2022-10-03T00:18:14.479Z,93.20
2022-10-03T00:21:02.712Z,93.21
2022-10-03T00:23:46.635Z,93.63
2022-10-03T00:26:30.879Z,94.68
2022-10-03T00:29:24.645Z,94.05
2022-10-03T00:32:13.143Z,94.24
2022-10-03T00:35:04.047Z,91.46
2022-10-03T00:37:41.985Z,89.54
2022-10-03T00:41:02.089Z,93.37
2022-10-03T00:44:38.229Z,91.33
2022-10-03T00:47:43.820Z,89.32
2022-10-03T00:50:34.721Z,89.85
2022-10-03T00:53:27.292Z,90.27
2022-10-03T00:56:21.752Z,91.16
2022-10-03T00:59:13.109Z,92.83
2022-10-03T01:06:33.377Z,89.42
2022-10-03T01:09:36.805Z,91.26
2022-10-03T01:12:40.908Z,93.29
2022-10-03T01:15:26.699Z,92.13
2022-10-03T01:18:15.263Z,92.14
2022-10-03T01:20:59.555Z,92.16
2022-10-03T01:24:06.689Z,91.35
2022-10-03T01:26:54.162Z,89.70
2022-10-03T01:30:00.426Z,86.55
2022-10-03T01:32:39.988Z,90.90
2022-10-03T01:35:23.942Z,89.02
2022-10-03T01:38:06.517Z,95.67
2022-10-03T01:40:44.191Z,89.81
2022-10-03T01:43:21.253Z,91.14
2022-10-03T01:46:07.472Z,92.09
2022-10-03T01:48:48.889Z,88.84
2022-10-03T01:51:24.182Z,91.29
2022-10-03T01:54:19.807Z,87.52
2022-10-03T01:56:59.552Z,89.44
2022-10-03T01:59:43.977Z,93.70
2022-10-03T02:02:28.856Z,90.40
2022-10-03T02:05:13.140Z,88.29
2022-10-03T02:07:52.836Z,89.57
2022-10-03T02:15:01.699Z,89.60
2022-10-03T02:17:54.417Z,90.89
2022-10-03T02:20:36.517Z,91.12
2022-10-03T02:23:27.275Z,90.99
2022-10-03T02:26:21.623Z,89.72
2022-10-03T02:29:24.756Z,90.47
2022-10-03T02:32:30.674Z,85.87
2022-10-03T02:36:01.966Z,90.26
2022-10-03T02:39:00.021Z,90.28
2022-10-03T02:42:14.694Z,89.32
2022-10-03T02:45:43.402Z,87.15
2022-10-03T02:49:05.652Z,86.66
2022-10-03T02:52:14.190Z,86.19
2022-10-03T02:55:11.948Z,86.46
2022-10-03T02:58:28.552Z,87.90
2022-10-03T03:01:45.568Z,88.55
2022-10-03T03:05:08.466Z,90.80
2022-10-03T03:08:17.551Z,88.56
2022-10-03T03:11:28.387Z,90.64
2022-10-03T03:14:41.748Z,92.31
2022-10-03T03:17:28.168Z,87.90
2022-10-03T03:20:24.970Z,88.42
2022-10-03T03:23:30.002Z,89.31
2022-10-03T03:26:25.284Z,89.26
2022-10-03T03:29:08.614Z,87.81
2022-10-03T03:31:47.807Z,88.84
2022-10-03T03:34:27.776Z,88.40
2022-10-03T03:37:07.253Z,89.51
2022-10-03T03:40:08.079Z,91.46
2022-10-03T03:43:12.292Z,91.93
2022-10-03T03:46:00.776Z,93.33
2022-10-03T03:48:50.490Z,93.17
2022-10-03T03:51:35.104Z,93.36
2022-10-03T03:54:37.980Z,96.05
2022-10-03T03:57:40.270Z,95.95
2022-10-03T04:00:17.453Z,95.72
2022-10-03T04:03:31.814Z,95.98
2022-10-03T04:10:53.747Z,95.35
2022-10-03T04:13:48.095Z,93.11
2022-10-03T04:16:58.711Z,91.63
2022-10-03T04:19:44.303Z,93.31
2022-10-03T04:22:46.529Z,94.61
2022-10-03T04:25:47.296Z,93.38
2022-10-03T04:28:39.827Z,93.67
2022-10-03T04:31:27.916Z,92.77
2022-10-03T04:34:20.323Z,92.88
2022-10-03T04:37:16.526Z,93.70
2022-10-03T04:39:58.738Z,93.78
2022-10-03T04:42:46.392Z,96.18
2022-10-03T04:45:39.892Z,98.44
2022-10-03T04:48:19.534Z,98.72
2022-10-03T04:55:35.352Z,98.45
2022-10-03T04:58:20.472Z,99.51
2022-10-03T05:01:05.926Z,100.00
2022-10-03T05:03:48.447Z,99.04
2022-10-03T05:06:38.212Z,100.00
2022-10-03T05:09:27.686Z,100.00
2022-10-03T05:12:13.270Z,100.00
2022-10-03T05:15:14.586Z,98.41
2022-10-03T05:17:58.735Z,100.00
2022-10-03T05:20:48.524Z,98.08
2022-10-03T05:23:40.160Z,98.69
2022-10-03T05:26:43.982Z,98.16
2022-10-03T05:29:22.714Z,99.89
2022-10-03T05:32:13.745Z,100.00
2022-10-03T05:35:16.366Z,98.52
2022-10-03T05:38:19.224Z,100.00
2022-10-03T05:41:03.393Z,99.60
2022-10-03T05:43:58.198Z,98.51
2022-10-03T05:46:58.184Z,100.00
2022-10-03T05:49:56.048Z,100.00
2022-10-03T05:52:50.462Z,100.00
2022-10-03T05:55:43.923Z,100.00
2022-10-03T05:58:58.243Z,100.00
2022-10-03T06:02:07.179Z,98.05
2022-10-03T06:05:39.594Z,100.00
2022-10-03T06:08:45.950Z,100.00
2022-10-03T06:11:35.858Z,96.94
2022-10-03T06:14:30.217Z,95.85
2022-10-03T06:17:24.508Z,96.25
2022-10-03T06:20:12.304Z,95.53
2022-10-03T06:23:16.846Z,94.76
2022-10-03T06:26:39.333Z,98.11
2022-10-03T06:30:05.687Z,95.45
2022-10-03T06:33:27.331Z,94.71
2022-10-03T06:36:33.641Z,93.72
2022-10-03T06:40:14.676Z,95.53
2022-10-03T06:43:34.596Z,94.63
2022-10-03T06:51:04.217Z,96.57
2022-10-03T06:54:39.923Z,98.22
2022-10-03T06:57:32.886Z,98.31
2022-10-03T07:00:20.224Z,100.00
2022-10-03T07:03:40.913Z,99.87
2022-10-03T07:07:07.484Z,100.00
2022-10-03T07:10:20.426Z,100.00
2022-10-03T07:13:35.235Z,100.00
2022-10-03T07:16:58.392Z,100.00
2022-10-03T07:20:08.601Z,100.00
2022-10-03T07:23:25.668Z,99.95
2022-10-03T07:26:56.756Z,100.00
2022-10-03T07:30:08.277Z,100.00
2022-10-03T07:33:27.725Z,100.00
2022-10-03T07:37:08.925Z,100.00
2022-10-03T07:40:22.667Z,100.00
2022-10-03T07:43:31.042Z,100.00
2022-10-03T07:46:45.960Z,100.00
2022-10-03T07:54:30.174Z,94.86
2022-10-03T07:57:32.754Z,97.62
2022-10-03T08:00:24.414Z,92.48
2022-10-03T08:03:57.559Z,94.58
2022-10-03T08:11:26.016Z,91.45
2022-10-03T08:14:17.692Z,92.60
2022-10-03T08:18:26.970Z,91.43
2022-10-03T08:20:59.732Z,90.22
2022-10-03T08:24:15.819Z,90.77
2022-10-03T08:27:27.296Z,91.67
2022-10-03T08:30:27.818Z,92.24
2022-10-03T08:38:23.888Z,88.32
2022-10-03T08:41:44.096Z,86.27
2022-10-03T08:45:03.969Z,88.22
2022-10-03T08:48:13.797Z,86.94
2022-10-03T08:51:04.321Z,88.98
2022-10-03T08:54:27.480Z,88.42
2022-10-03T08:57:25.634Z,87.21
2022-10-03T09:00:12.328Z,85.82
2022-10-03T09:03:59.257Z,86.93
2022-10-03T09:07:24.108Z,85.63
2022-10-03T09:10:28.336Z,86.30
2022-10-03T09:13:42.192Z,86.85
2022-10-03T09:25:41.621Z,92.65
2022-10-03T09:29:20.228Z,91.23
2022-10-03T09:32:44.586Z,91.78
2022-10-03T09:35:48.376Z,90.44
2022-10-03T09:39:22.996Z,93.32
2022-10-03T09:42:47.933Z,91.92
2022-10-03T09:45:36.968Z,92.01
2022-10-03T09:49:03.606Z,93.10
2022-10-03T09:57:01.643Z,96.25
2022-10-03T09:59:56.529Z,92.06
2022-10-03T10:03:04.422Z,93.87
2022-10-03T10:06:09.249Z,92.88
2022-10-03T10:09:22.006Z,93.33
2022-10-03T10:12:37.956Z,92.93
2022-10-03T10:16:01.803Z,94.88
2022-10-03T10:19:13.344Z,94.26
2022-10-03T10:22:26.009Z,99.10
2022-10-03T10:25:26.730Z,96.85
2022-10-03T10:28:36.424Z,99.86
2022-10-03T10:31:58.038Z,95.77
2022-10-03T10:35:30.204Z,95.72
2022-10-03T10:38:28.240Z,97.14
2022-10-03T10:41:53.637Z,99.80
2022-10-03T10:46:06.172Z,98.72
2022-10-03T10:49:47.072Z,97.04
2022-10-03T10:52:50.558Z,99.18
2022-10-03T10:56:19.048Z,100.00
2022-10-03T11:04:35.912Z,93.80
2022-10-03T11:07:54.161Z,94.75
2022-10-03T11:10:37.727Z,91.09
2022-10-03T11:14:03.440Z,87.58
2022-10-03T11:17:24.000Z,84.96
2022-10-03T11:20:51.463Z,77.79
2022-10-03T11:24:16.683Z,78.80
2022-10-03T11:27:44.164Z,73.51
2022-10-03T11:31:14.167Z,71.78
2022-10-03T11:34:34.296Z,69.82
2022-10-03T11:37:16.651Z,66.99
2022-10-03T11:39:58.889Z,63.30
2022-10-03T11:42:51.499Z,62.77
2022-10-03T11:45:33.292Z,61.50
2022-10-03T11:48:30.769Z,62.37
2022-10-03T11:51:08.115Z,58.51
2022-10-03T11:53:49.806Z,59.43
2022-10-03T11:56:41.042Z,62.66
2022-10-03T11:59:35.244Z,61.57
2022-10-03T12:02:17.773Z,60.06
2022-10-03T12:04:58.788Z,59.98
2022-10-03T12:08:04.637Z,57.54
2022-10-03T12:11:02.880Z,58.72
2022-10-03T12:15:11.321Z,60.69
2022-10-03T12:17:49.983Z,56.28
2022-10-03T12:20:28.756Z,57.25
2022-10-03T12:23:09.734Z,58.92
2022-10-03T12:25:44.882Z,56.94
2022-10-03T12:28:23.072Z,53.62
2022-10-03T12:31:01.360Z,55.82
2022-10-03T12:33:51.304Z,54.77
2022-10-03T12:38:03.294Z,51.43
2022-10-03T12:40:38.822Z,51.28
2022-10-03T12:43:34.378Z,50.99
2022-10-03T12:46:15.034Z,51.08
2022-10-03T12:48:56.189Z,50.13
2022-10-03T12:51:48.433Z,50.23
2022-10-03T12:54:41.136Z,51.15
2022-10-03T12:57:49.245Z,51.65
2022-10-03T13:00:28.284Z,52.58
2022-10-03T13:03:26.847Z,53.42
2022-10-03T13:07:03.333Z,51.08
2022-10-03T13:10:03.243Z,50.93
2022-10-03T13:14:10.188Z,51.53
2022-10-03T13:16:51.091Z,53.64
2022-10-03T13:19:27.249Z,50.23
2022-10-03T13:22:14.129Z,52.29
2022-10-03T13:24:53.837Z,51.45
2022-10-03T13:27:36.344Z,50.21
2022-10-03T13:30:14.976Z,51.34
2022-10-03T13:32:51.346Z,49.11
2022-10-03T13:35:54.169Z,49.85
2022-10-03T13:38:55.228Z,48.35
2022-10-03T13:41:34.884Z,47.85
2022-10-03T13:44:10.885Z,49.07
2022-10-03T13:46:53.442Z,49.36
2022-10-03T16:03:03.358Z,53.32
2022-10-03T16:05:32.232Z,53.75
2022-10-03T16:08:08.743Z,53.11
2022-10-03T16:10:43.409Z,55.25
2022-10-03T16:13:29.967Z,54.79
2022-10-03T16:16:19.908Z,56.63
2022-10-03T16:18:56.802Z,55.87
2022-10-03T16:21:47.118Z,58.04
2022-10-03T16:24:31.590Z,57.23
2022-10-03T16:27:16.879Z,57.63
2022-10-03T16:29:54.983Z,59.64
2022-10-03T16:32:28.231Z,61.21
2022-10-03T16:35:03.398Z,59.06
2022-10-03T16:37:33.272Z,60.16
2022-10-03T16:40:05.505Z,62.55
2022-10-03T16:42:43.996Z,68.03
2022-10-03T16:45:26.400Z,65.95
2022-10-03T16:48:18.296Z,70.11
2022-10-03T16:50:54.418Z,72.13
2022-10-03T16:53:24.404Z,70.54
2022-10-03T16:56:00.472Z,72.43
2022-10-03T16:58:34.300Z,70.91
2022-10-03T17:01:26.453Z,74.40
2022-10-03T17:04:03.831Z,73.06
2022-10-03T17:06:39.088Z,77.34
2022-10-03T17:09:22.684Z,75.05
2022-10-03T17:11:58.312Z,76.02
2022-10-03T17:14:36.633Z,74.64
2022-10-03T17:17:17.093Z,74.47
2022-10-03T17:19:58.378Z,77.77
2022-10-03T17:22:37.736Z,75.32
2022-10-03T17:25:35.085Z,76.88
2022-10-03T17:28:07.513Z,79.74
2022-10-03T17:30:46.134Z,77.65
2022-10-03T17:33:23.584Z,75.27
2022-10-03T17:36:08.310Z,75.87
2022-10-03T17:38:52.651Z,73.79
2022-10-03T17:41:28.368Z,74.95
2022-10-03T17:44:20.894Z,74.89
2022-10-03T17:47:04.128Z,76.02
2022-10-03T17:49:52.415Z,76.99
2022-10-03T17:52:24.569Z,73.60
2022-10-03T17:54:59.659Z,73.98
2022-10-03T17:57:37.529Z,73.74
2022-10-03T18:00:21.200Z,73.24
2022-10-03T18:03:02.187Z,74.51
2022-10-03T18:05:37.713Z,71.75
2022-10-03T18:08:14.138Z,71.85
2022-10-03T18:10:52.339Z,75.70
2022-10-03T18:13:29.576Z,75.42
2022-10-03T18:16:22.411Z,75.96
2022-10-03T18:19:12.059Z,73.87
2022-10-03T18:22:09.598Z,72.35
2022-10-03T18:25:24.562Z,73.60
2022-10-03T18:28:21.150Z,73.26
2022-10-03T18:30:57.654Z,74.76
2022-10-03T18:33:33.517Z,73.72
2022-10-03T18:36:12.546Z,77.25
2022-10-03T18:38:46.303Z,74.54
2022-10-03T18:41:19.248Z,75.59
2022-10-03T18:43:58.869Z,76.51
2022-10-03T18:46:36.583Z,77.50
2022-10-03T18:49:35.169Z,80.88
2022-10-03T18:52:18.356Z,79.69
2022-10-03T18:55:00.655Z,80.03
2022-10-03T18:57:38.938Z,79.01
2022-10-03T19:00:20.224Z,80.92
2022-10-03T19:02:55.401Z,78.32
2022-10-03T19:05:31.855Z,78.41
2022-10-03T19:08:11.460Z,79.02
2022-10-03T19:10:46.512Z,82.17
2022-10-03T19:13:31.241Z,81.82
2022-10-03T19:16:36.841Z,85.49
2022-10-03T19:19:13.765Z,84.33
2022-10-03T19:21:44.033Z,82.59
2022-10-03T19:24:34.531Z,83.20
2022-10-03T19:27:16.995Z,82.41
2022-10-03T19:29:51.155Z,85.85
2022-10-03T19:32:30.298Z,84.78
2022-10-03T19:35:05.776Z,82.42
2022-10-03T19:37:45.926Z,79.79
2022-10-03T19:40:32.077Z,84.67
2022-10-03T19:43:44.623Z,82.37
2022-10-03T19:46:41.180Z,82.71
2022-10-03T19:49:46.698Z,82.52
2022-10-03T19:52:41.627Z,80.72
2022-10-03T19:55:16.430Z,80.50
2022-10-03T19:57:51.938Z,81.84
2022-10-03T20:00:29.262Z,85.21
2022-10-03T20:03:13.961Z,85.47
2022-10-03T20:06:07.287Z,85.53
2022-10-03T20:08:45.672Z,85.54
2022-10-03T20:11:39.892Z,84.35
2022-10-03T20:14:16.262Z,81.44
2022-10-03T20:16:49.903Z,84.92
2022-10-03T20:19:24.917Z,81.78
2022-10-03T20:21:57.834Z,82.70
2022-10-03T20:24:35.485Z,81.47
2022-10-03T20:27:25.685Z,81.50
2022-10-03T20:30:08.306Z,83.27
2022-10-03T20:32:44.421Z,82.88
2022-10-03T20:35:20.552Z,81.12
2022-10-03T20:37:57.382Z,83.17
2022-10-03T20:40:35.856Z,83.36
2022-10-03T20:43:41.817Z,84.08
2022-10-03T20:46:25.736Z,82.75
2022-10-03T20:49:31.660Z,85.51
2022-10-03T20:52:05.433Z,89.50
2022-10-03T20:54:50.066Z,85.84
2022-10-03T20:57:24.545Z,86.27
2022-10-03T21:00:04.517Z,84.59
2022-10-03T21:02:43.286Z,84.41
2022-10-03T21:05:23.025Z,88.23
2022-10-03T21:07:57.462Z,90.39
2022-10-03T21:10:33.000Z,87.14
2022-10-03T21:13:06.189Z,86.07
2022-10-03T21:15:47.579Z,90.28
2022-10-03T21:18:23.752Z,87.26
2022-10-03T21:21:06.230Z,87.52
2022-10-03T21:23:44.743Z,87.73
2022-10-03T21:26:21.498Z,86.13
2022-10-03T21:28:50.349Z,86.69
2022-10-03T21:31:43.133Z,85.27
2022-10-03T21:34:26.442Z,92.22
2022-10-03T21:37:12.263Z,86.82
2022-10-03T21:40:04.262Z,87.10
2022-10-03T21:42:46.151Z,86.53
2022-10-03T21:45:31.820Z,87.63
2022-10-03T21:48:11.255Z,84.56
2022-10-03T21:50:53.770Z,86.16
2022-10-03T21:53:38.746Z,88.97
2022-10-03T21:56:35.997Z,91.91
2022-10-03T21:59:37.324Z,90.96
2022-10-03T22:02:20.115Z,90.53
2022-10-03T22:04:57.585Z,88.55
2022-10-03T22:07:38.732Z,87.04
2022-10-03T22:10:21.422Z,89.25
2022-10-03T22:12:54.553Z,88.86
2022-10-03T22:15:38.656Z,87.87
2022-10-03T22:18:14.796Z,88.07
2022-10-03T22:20:57.646Z,88.75
2022-10-03T22:23:42.749Z,91.72
2022-10-03T22:26:24.185Z,91.22
2022-10-03T22:29:05.317Z,90.66
2022-10-03T22:31:46.016Z,87.77
2022-10-03T22:34:34.003Z,89.93
2022-10-03T22:37:03.707Z,86.35
2022-10-03T22:39:36.830Z,89.55
2022-10-03T22:42:08.013Z,88.87
2022-10-03T22:44:43.317Z,87.52
2022-10-03T22:47:20.127Z,87.50
2022-10-03T22:49:58.715Z,88.75
2022-10-03T22:52:33.293Z,92.58
2022-10-03T22:55:05.544Z,93.25
2022-10-03T22:57:36.094Z,92.07
2022-10-03T23:00:10.635Z,90.35
2022-10-03T23:02:49.877Z,94.01
2022-10-03T23:05:40.237Z,88.33
2022-10-03T23:08:22.079Z,88.94
2022-10-03T23:10:59.812Z,92.10
2022-10-03T23:13:38.765Z,90.64
2022-10-03T23:16:28.866Z,92.23
2022-10-03T23:19:18.108Z,89.25
2022-10-03T23:21:49.328Z,88.81
2022-10-03T23:24:28.434Z,92.72
2022-10-03T23:27:43.152Z,89.68
2022-10-03T23:30:50.846Z,95.47
2022-10-03T23:33:56.521Z,90.92
2022-10-03T23:36:26.466Z,92.08
2022-10-03T23:39:02.320Z,89.69
2022-10-03T23:41:56.361Z,90.44
2022-10-03T23:44:49.481Z,90.89
2022-10-03T23:47:24.696Z,90.19
2022-10-03T23:49:55.526Z,88.92
2022-10-03T23:52:31.799Z,93.78
2022-10-03T23:55:08.118Z,90.20
2022-10-03T23:57:43.172Z,90.00
